sensor_id;sensor_type;location;lat;lon;timestamp;temperature;humidity
65478;SHT31;53678;39.642;22.430;2022-10-22T00:01:18;11.12;88.26
65478;SHT31;53678;39.642;22.430;2022-10-22T00:03:44;11.06;88.16
65478;SHT31;53678;39.642;22.430;2022-10-22T00:06:10;11.15;88.30
65478;SHT31;53678;39.642;22.430;2022-10-22T00:08:36;11.34;88.33
65478;SHT31;53678;39.642;22.430;2022-10-22T00:11:20;11.53;87.49
65478;SHT31;53678;39.642;22.430;2022-10-22T00:13:47;11.58;86.53
65478;SHT31;53678;39.642;22.430;2022-10-22T00:16:13;11.68;86.37
65478;SHT31;53678;39.642;22.430;2022-10-22T00:18:39;11.71;86.31
65478;SHT31;53678;39.642;22.430;2022-10-22T00:21:05;11.73;86.19
65478;SHT31;53678;39.642;22.430;2022-10-22T00:23:32;11.84;86.40
65478;SHT31;53678;39.642;22.430;2022-10-22T00:25:58;11.97;86.30
65478;SHT31;53678;39.642;22.430;2022-10-22T00:28:24;12.09;86.32
65478;SHT31;53678;39.642;22.430;2022-10-22T00:30:58;12.15;86.18
65478;SHT31;53678;39.642;22.430;2022-10-22T00:33:24;12.18;85.89
65478;SHT31;53678;39.642;22.430;2022-10-22T00:35:51;12.28;85.66
65478;SHT31;53678;39.642;22.430;2022-10-22T00:38:16;12.36;85.03
65478;SHT31;53678;39.642;22.430;2022-10-22T00:40:42;12.37;84.59
65478;SHT31;53678;39.642;22.430;2022-10-22T00:43:13;12.36;84.57
65478;SHT31;53678;39.642;22.430;2022-10-22T00:45:40;12.43;84.66
65478;SHT31;53678;39.642;22.430;2022-10-22T00:48:09;12.46;84.48
65478;SHT31;53678;39.642;22.430;2022-10-22T00:53:12;12.42;84.12
65478;SHT31;53678;39.642;22.430;2022-10-22T00:55:40;12.43;84.24
65478;SHT31;53678;39.642;22.430;2022-10-22T00:58:08;12.45;84.32
65478;SHT31;53678;39.642;22.430;2022-10-22T01:00:35;12.45;84.32
65478;SHT31;53678;39.642;22.430;2022-10-22T01:03:01;12.47;84.33
65478;SHT31;53678;39.642;22.430;2022-10-22T01:05:28;12.50;84.38
65478;SHT31;53678;39.642;22.430;2022-10-22T01:07:55;12.49;84.40
65478;SHT31;53678;39.642;22.430;2022-10-22T01:10:49;12.50;84.35
65478;SHT31;53678;39.642;22.430;2022-10-22T01:13:47;12.46;84.34
65478;SHT31;53678;39.642;22.430;2022-10-22T01:16:26;12.40;84.41
65478;SHT31;53678;39.642;22.430;2022-10-22T01:21:33;12.25;84.46
65478;SHT31;53678;39.642;22.430;2022-10-22T01:32:21;11.89;85.06
65478;SHT31;53678;39.642;22.430;2022-10-22T01:35:08;11.74;86.01
65478;SHT31;53678;39.642;22.430;2022-10-22T01:37:41;11.79;85.65
65478;SHT31;53678;39.642;22.430;2022-10-22T01:40:09;11.81;85.27
65478;SHT31;53678;39.642;22.430;2022-10-22T01:42:36;11.81;85.61
65478;SHT31;53678;39.642;22.430;2022-10-22T01:45:11;11.89;85.30
65478;SHT31;53678;39.642;22.430;2022-10-22T01:47:52;11.94;84.92
65478;SHT31;53678;39.642;22.430;2022-10-22T02:01:25;11.81;85.09
65478;SHT31;53678;39.642;22.430;2022-10-22T02:03:59;11.82;85.36
65478;SHT31;53678;39.642;22.430;2022-10-22T02:06:27;11.88;85.27
65478;SHT31;53678;39.642;22.430;2022-10-22T02:08:55;11.95;85.22
65478;SHT31;53678;39.642;22.430;2022-10-22T02:11:22;11.98;84.96
65478;SHT31;53678;39.642;22.430;2022-10-22T02:13:51;12.05;84.80
65478;SHT31;53678;39.642;22.430;2022-10-22T02:16:26;12.06;84.66
65478;SHT31;53678;39.642;22.430;2022-10-22T02:18:53;12.08;84.48
65478;SHT31;53678;39.642;22.430;2022-10-22T02:21:21;12.15;84.41
65478;SHT31;53678;39.642;22.430;2022-10-22T02:23:48;12.22;83.81
65478;SHT31;53678;39.642;22.430;2022-10-22T02:26:27;12.25;83.69
65478;SHT31;53678;39.642;22.430;2022-10-22T02:31:30;12.14;83.75
65478;SHT31;53678;39.642;22.430;2022-10-22T02:34:01;12.06;83.80
65478;SHT31;53678;39.642;22.430;2022-10-22T02:36:30;12.06;83.67
65478;SHT31;53678;39.642;22.430;2022-10-22T02:38:57;12.04;83.58
65478;SHT31;53678;39.642;22.430;2022-10-22T02:41:23;12.12;83.12
65478;SHT31;53678;39.642;22.430;2022-10-22T02:43:53;12.08;83.28
65478;SHT31;53678;39.642;22.430;2022-10-22T02:46:19;12.04;83.50
65478;SHT31;53678;39.642;22.430;2022-10-22T02:48:45;11.99;83.75
65478;SHT31;53678;39.642;22.430;2022-10-22T02:51:11;12.04;83.66
65478;SHT31;53678;39.642;22.430;2022-10-22T02:53:36;12.05;83.42
65478;SHT31;53678;39.642;22.430;2022-10-22T02:56:03;11.99;83.65
65478;SHT31;53678;39.642;22.430;2022-10-22T02:58:28;11.95;83.81
65478;SHT31;53678;39.642;22.430;2022-10-22T03:00:54;11.97;83.83
65478;SHT31;53678;39.642;22.430;2022-10-22T03:03:20;11.94;83.77
65478;SHT31;53678;39.642;22.430;2022-10-22T03:05:46;11.91;83.77
65478;SHT31;53678;39.642;22.430;2022-10-22T03:08:12;11.85;83.79
65478;SHT31;53678;39.642;22.430;2022-10-22T03:10:37;11.81;84.13
65478;SHT31;53678;39.642;22.430;2022-10-22T03:13:03;11.68;84.54
65478;SHT31;53678;39.642;22.430;2022-10-22T03:15:29;11.44;85.90
65478;SHT31;53678;39.642;22.430;2022-10-22T03:17:55;11.31;86.16
65478;SHT31;53678;39.642;22.430;2022-10-22T03:20:20;11.41;86.03
65478;SHT31;53678;39.642;22.430;2022-10-22T03:22:46;11.47;85.79
65478;SHT31;53678;39.642;22.430;2022-10-22T03:25:15;11.30;85.85
65478;SHT31;53678;39.642;22.430;2022-10-22T03:27:44;11.00;87.01
65478;SHT31;53678;39.642;22.430;2022-10-22T03:30:11;11.08;87.46
65478;SHT31;53678;39.642;22.430;2022-10-22T03:32:37;11.15;86.84
65478;SHT31;53678;39.642;22.430;2022-10-22T03:35:04;10.95;87.01
65478;SHT31;53678;39.642;22.430;2022-10-22T03:37:30;10.68;88.02
65478;SHT31;53678;39.642;22.430;2022-10-22T03:39:57;10.64;86.85
65478;SHT31;53678;39.642;22.430;2022-10-22T03:42:23;10.60;86.12
65478;SHT31;53678;39.642;22.430;2022-10-22T03:44:49;10.51;85.74
65478;SHT31;53678;39.642;22.430;2022-10-22T03:47:15;10.50;85.20
65478;SHT31;53678;39.642;22.430;2022-10-22T03:49:41;10.20;85.15
65478;SHT31;53678;39.642;22.430;2022-10-22T03:52:09;10.09;85.40
65478;SHT31;53678;39.642;22.430;2022-10-22T03:54:36;9.82;85.49
65478;SHT31;53678;39.642;22.430;2022-10-22T03:57:04;10.00;84.77
65478;SHT31;53678;39.642;22.430;2022-10-22T03:59:38;10.02;84.56
65478;SHT31;53678;39.642;22.430;2022-10-22T04:02:04;10.09;84.02
65478;SHT31;53678;39.642;22.430;2022-10-22T04:04:30;10.09;83.77
65478;SHT31;53678;39.642;22.430;2022-10-22T04:06:56;9.99;83.88
65478;SHT31;53678;39.642;22.430;2022-10-22T04:09:22;9.92;84.58
65478;SHT31;53678;39.642;22.430;2022-10-22T04:11:48;9.94;84.68
65478;SHT31;53678;39.642;22.430;2022-10-22T04:14:13;9.97;84.94
65478;SHT31;53678;39.642;22.430;2022-10-22T04:16:40;10.07;84.90
65478;SHT31;53678;39.642;22.430;2022-10-22T04:19:06;10.13;84.21
65478;SHT31;53678;39.642;22.430;2022-10-22T04:21:32;10.13;83.92
65478;SHT31;53678;39.642;22.430;2022-10-22T04:23:58;9.99;83.89
65478;SHT31;53678;39.642;22.430;2022-10-22T04:26:24;10.02;84.02
65478;SHT31;53678;39.642;22.430;2022-10-22T04:28:51;10.16;83.74
65478;SHT31;53678;39.642;22.430;2022-10-22T04:31:20;10.23;83.15
65478;SHT31;53678;39.642;22.430;2022-10-22T04:33:47;10.30;83.25
65478;SHT31;53678;39.642;22.430;2022-10-22T04:36:17;10.34;82.94
65478;SHT31;53678;39.642;22.430;2022-10-22T04:38:45;10.41;82.39
65478;SHT31;53678;39.642;22.430;2022-10-22T04:41:16;10.40;83.07
65478;SHT31;53678;39.642;22.430;2022-10-22T04:43:42;10.48;82.37
65478;SHT31;53678;39.642;22.430;2022-10-22T04:46:09;10.51;82.52
65478;SHT31;53678;39.642;22.430;2022-10-22T04:48:36;10.58;82.03
65478;SHT31;53678;39.642;22.430;2022-10-22T04:51:03;10.65;81.81
65478;SHT31;53678;39.642;22.430;2022-10-22T04:53:29;10.67;81.58
65478;SHT31;53678;39.642;22.430;2022-10-22T04:58:51;10.29;82.37
65478;SHT31;53678;39.642;22.430;2022-10-22T05:01:20;10.25;82.54
65478;SHT31;53678;39.642;22.430;2022-10-22T05:03:48;10.13;83.29
65478;SHT31;53678;39.642;22.430;2022-10-22T05:06:14;9.89;84.26
65478;SHT31;53678;39.642;22.430;2022-10-22T05:08:40;10.02;84.32
65478;SHT31;53678;39.642;22.430;2022-10-22T05:11:16;10.30;83.29
65478;SHT31;53678;39.642;22.430;2022-10-22T05:13:42;10.44;82.54
65478;SHT31;53678;39.642;22.430;2022-10-22T05:16:08;10.58;81.75
65478;SHT31;53678;39.642;22.430;2022-10-22T05:18:38;10.71;81.80
65478;SHT31;53678;39.642;22.430;2022-10-22T05:21:08;10.82;81.48
65478;SHT31;53678;39.642;22.430;2022-10-22T05:23:34;10.88;80.99
65478;SHT31;53678;39.642;22.430;2022-10-22T05:26:05;11.02;80.66
65478;SHT31;53678;39.642;22.430;2022-10-22T05:28:31;11.19;79.69
65478;SHT31;53678;39.642;22.430;2022-10-22T05:30:58;11.27;78.98
65478;SHT31;53678;39.642;22.430;2022-10-22T05:33:26;11.39;79.26
65478;SHT31;53678;39.642;22.430;2022-10-22T05:35:53;11.58;79.30
65478;SHT31;53678;39.642;22.430;2022-10-22T05:38:19;11.57;80.89
65478;SHT31;53678;39.642;22.430;2022-10-22T05:40:45;12.05;80.30
65478;SHT31;53678;39.642;22.430;2022-10-22T05:43:12;12.85;77.36
65478;SHT31;53678;39.642;22.430;2022-10-22T05:45:39;13.74;74.87
65478;SHT31;53678;39.642;22.430;2022-10-22T05:48:05;14.37;71.35
65478;SHT31;53678;39.642;22.430;2022-10-22T05:50:36;15.07;69.63
65478;SHT31;53678;39.642;22.430;2022-10-22T05:53:03;13.72;72.44
65478;SHT31;53678;39.642;22.430;2022-10-22T05:55:29;13.97;72.48
65478;SHT31;53678;39.642;22.430;2022-10-22T05:57:55;13.93;71.46
65478;SHT31;53678;39.642;22.430;2022-10-22T06:00:20;14.85;70.24
65478;SHT31;53678;39.642;22.430;2022-10-22T06:02:50;15.72;66.36
65478;SHT31;53678;39.642;22.430;2022-10-22T06:05:16;16.01;64.64
65478;SHT31;53678;39.642;22.430;2022-10-22T06:07:42;15.84;65.36
65478;SHT31;53678;39.642;22.430;2022-10-22T06:10:13;15.67;65.92
65478;SHT31;53678;39.642;22.430;2022-10-22T06:12:40;15.54;65.94
65478;SHT31;53678;39.642;22.430;2022-10-22T06:15:06;15.57;66.05
65478;SHT31;53678;39.642;22.430;2022-10-22T06:17:32;15.65;65.72
65478;SHT31;53678;39.642;22.430;2022-10-22T06:19:58;15.95;65.58
65478;SHT31;53678;39.642;22.430;2022-10-22T06:22:24;15.89;64.90
65478;SHT31;53678;39.642;22.430;2022-10-22T06:24:51;16.23;64.65
65478;SHT31;53678;39.642;22.430;2022-10-22T06:27:16;16.33;64.43
65478;SHT31;53678;39.642;22.430;2022-10-22T06:29:42;16.47;63.97
65478;SHT31;53678;39.642;22.430;2022-10-22T06:32:08;16.87;63.56
65478;SHT31;53678;39.642;22.430;2022-10-22T06:34:34;16.91;62.80
65478;SHT31;53678;39.642;22.430;2022-10-22T06:37:00;16.59;63.62
65478;SHT31;53678;39.642;22.430;2022-10-22T06:39:25;16.57;64.47
65478;SHT31;53678;39.642;22.430;2022-10-22T06:41:51;16.13;65.74
65478;SHT31;53678;39.642;22.430;2022-10-22T06:44:18;15.72;67.27
65478;SHT31;53678;39.642;22.430;2022-10-22T06:46:44;15.57;67.90
65478;SHT31;53678;39.642;22.430;2022-10-22T06:49:14;15.59;67.90
65478;SHT31;53678;39.642;22.430;2022-10-22T06:51:39;14.58;71.38
65478;SHT31;53678;39.642;22.430;2022-10-22T06:54:05;14.61;72.65
65478;SHT31;53678;39.642;22.430;2022-10-22T06:56:31;15.13;70.67
65478;SHT31;53678;39.642;22.430;2022-10-22T06:58:57;15.43;69.14
65478;SHT31;53678;39.642;22.430;2022-10-22T07:01:26;15.77;69.88
65478;SHT31;53678;39.642;22.430;2022-10-22T07:03:52;15.88;69.98
65478;SHT31;53678;39.642;22.430;2022-10-22T07:06:19;16.04;69.39
65478;SHT31;53678;39.642;22.430;2022-10-22T07:08:46;16.10;68.92
65478;SHT31;53678;39.642;22.430;2022-10-22T07:11:15;16.16;69.48
65478;SHT31;53678;39.642;22.430;2022-10-22T07:13:41;14.85;73.46
65478;SHT31;53678;39.642;22.430;2022-10-22T07:16:08;15.59;71.08
65478;SHT31;53678;39.642;22.430;2022-10-22T07:18:35;16.06;70.39
65478;SHT31;53678;39.642;22.430;2022-10-22T07:21:01;16.02;69.53
65478;SHT31;53678;39.642;22.430;2022-10-22T07:23:28;16.27;70.18
65478;SHT31;53678;39.642;22.430;2022-10-22T07:25:54;16.52;69.86
65478;SHT31;53678;39.642;22.430;2022-10-22T07:28:20;16.71;68.34
65478;SHT31;53678;39.642;22.430;2022-10-22T07:30:45;17.16;67.96
65478;SHT31;53678;39.642;22.430;2022-10-22T07:33:12;16.87;68.24
65478;SHT31;53678;39.642;22.430;2022-10-22T07:35:38;16.04;70.83
65478;SHT31;53678;39.642;22.430;2022-10-22T07:38:06;15.68;73.55
65478;SHT31;53678;39.642;22.430;2022-10-22T07:40:32;15.62;73.49
65478;SHT31;53678;39.642;22.430;2022-10-22T07:42:58;16.09;71.92
65478;SHT31;53678;39.642;22.430;2022-10-22T07:45:24;16.15;71.72
65478;SHT31;53678;39.642;22.430;2022-10-22T07:47:50;16.02;73.15
65478;SHT31;53678;39.642;22.430;2022-10-22T07:50:16;16.15;72.90
65478;SHT31;53678;39.642;22.430;2022-10-22T07:52:42;16.22;72.86
65478;SHT31;53678;39.642;22.430;2022-10-22T07:55:09;16.68;70.66
65478;SHT31;53678;39.642;22.430;2022-10-22T07:57:35;17.14;70.07
65478;SHT31;53678;39.642;22.430;2022-10-22T08:00:06;17.02;69.86
65478;SHT31;53678;39.642;22.430;2022-10-22T08:02:37;17.49;68.72
65478;SHT31;53678;39.642;22.430;2022-10-22T08:05:04;16.80;70.07
65478;SHT31;53678;39.642;22.430;2022-10-22T08:07:30;16.68;71.27
65478;SHT31;53678;39.642;22.430;2022-10-22T08:09:56;16.33;71.76
65478;SHT31;53678;39.642;22.430;2022-10-22T08:12:21;16.61;71.80
65478;SHT31;53678;39.642;22.430;2022-10-22T08:14:47;17.14;69.66
65478;SHT31;53678;39.642;22.430;2022-10-22T08:17:13;16.80;70.88
65478;SHT31;53678;39.642;22.430;2022-10-22T08:19:39;16.89;69.95
65478;SHT31;53678;39.642;22.430;2022-10-22T08:22:05;16.88;70.68
65478;SHT31;53678;39.642;22.430;2022-10-22T08:24:31;17.12;69.45
65478;SHT31;53678;39.642;22.430;2022-10-22T08:26:56;16.71;71.22
65478;SHT31;53678;39.642;22.430;2022-10-22T08:29:23;16.60;71.40
65478;SHT31;53678;39.642;22.430;2022-10-22T08:31:52;16.36;72.09
65478;SHT31;53678;39.642;22.430;2022-10-22T08:34:19;16.42;71.71
65478;SHT31;53678;39.642;22.430;2022-10-22T08:36:45;16.89;70.43
65478;SHT31;53678;39.642;22.430;2022-10-22T08:39:11;17.01;71.39
65478;SHT31;53678;39.642;22.430;2022-10-22T08:44:36;17.35;69.62
65478;SHT31;53678;39.642;22.430;2022-10-22T08:49:58;17.69;67.93
65478;SHT31;53678;39.642;22.430;2022-10-22T08:52:25;17.32;69.39
65478;SHT31;53678;39.642;22.430;2022-10-22T08:54:59;17.22;69.39
65478;SHT31;53678;39.642;22.430;2022-10-22T09:00:58;17.90;67.38
65478;SHT31;53678;39.642;22.430;2022-10-22T09:06:20;16.94;70.05
65478;SHT31;53678;39.642;22.430;2022-10-22T09:08:47;17.31;69.22
65478;SHT31;53678;39.642;22.430;2022-10-22T09:11:34;17.60;67.72
65478;SHT31;53678;39.642;22.430;2022-10-22T09:14:02;17.79;67.92
65478;SHT31;53678;39.642;22.430;2022-10-22T09:21:44;18.05;66.45
65478;SHT31;53678;39.642;22.430;2022-10-22T09:24:36;18.27;66.04
65478;SHT31;53678;39.642;22.430;2022-10-22T09:27:12;17.91;66.99
65478;SHT31;53678;39.642;22.430;2022-10-22T09:29:38;18.30;66.08
65478;SHT31;53678;39.642;22.430;2022-10-22T09:32:04;18.38;65.70
65478;SHT31;53678;39.642;22.430;2022-10-22T09:34:31;18.35;66.25
65478;SHT31;53678;39.642;22.430;2022-10-22T09:37:07;18.65;65.26
65478;SHT31;53678;39.642;22.430;2022-10-22T09:39:37;18.65;65.18
65478;SHT31;53678;39.642;22.430;2022-10-22T09:42:03;18.58;65.21
65478;SHT31;53678;39.642;22.430;2022-10-22T09:44:32;18.62;65.17
65478;SHT31;53678;39.642;22.430;2022-10-22T09:47:10;18.77;64.71
65478;SHT31;53678;39.642;22.430;2022-10-22T09:52:35;18.99;64.08
65478;SHT31;53678;39.642;22.430;2022-10-22T09:55:02;19.18;63.54
65478;SHT31;53678;39.642;22.430;2022-10-22T09:57:31;19.02;63.42
65478;SHT31;53678;39.642;22.430;2022-10-22T09:59:57;19.07;63.57
65478;SHT31;53678;39.642;22.430;2022-10-22T10:02:27;19.24;63.69
65478;SHT31;53678;39.642;22.430;2022-10-22T10:04:55;19.26;62.92
65478;SHT31;53678;39.642;22.430;2022-10-22T10:07:24;19.34;62.48
65478;SHT31;53678;39.642;22.430;2022-10-22T10:09:51;19.31;63.09
65478;SHT31;53678;39.642;22.430;2022-10-22T10:20:53;19.24;63.67
65478;SHT31;53678;39.642;22.430;2022-10-22T10:23:39;19.10;64.29
65478;SHT31;53678;39.642;22.430;2022-10-22T10:29:21;19.32;63.76
65478;SHT31;53678;39.642;22.430;2022-10-22T10:37:48;19.30;63.85
65478;SHT31;53678;39.642;22.430;2022-10-22T10:46:11;19.57;63.40
65478;SHT31;53678;39.642;22.430;2022-10-22T11:02:42;19.68;62.95
65478;SHT31;53678;39.642;22.430;2022-10-22T11:05:29;19.85;62.27
65478;SHT31;53678;39.642;22.430;2022-10-22T11:10:53;19.96;61.77
65478;SHT31;53678;39.642;22.430;2022-10-22T11:19:02;20.36;61.00
65478;SHT31;53678;39.642;22.430;2022-10-22T11:24:26;20.30;60.17
65478;SHT31;53678;39.642;22.430;2022-10-22T11:29:24;19.75;62.03
65478;SHT31;53678;39.642;22.430;2022-10-22T11:31:52;19.62;61.97
65478;SHT31;53678;39.642;22.430;2022-10-22T11:37:23;19.69;61.89
65478;SHT31;53678;39.642;22.430;2022-10-22T11:39:57;19.85;61.56
65478;SHT31;53678;39.642;22.430;2022-10-22T12:36:16;20.50;55.71
65478;SHT31;53678;39.642;22.430;2022-10-22T12:38:45;20.55;55.50
65478;SHT31;53678;39.642;22.430;2022-10-22T12:41:11;20.55;55.60
65478;SHT31;53678;39.642;22.430;2022-10-22T12:43:37;20.51;55.50
65478;SHT31;53678;39.642;22.430;2022-10-22T12:46:14;20.58;55.02
65478;SHT31;53678;39.642;22.430;2022-10-22T12:48:43;20.54;55.44
65478;SHT31;53678;39.642;22.430;2022-10-22T12:51:15;20.55;55.41
65478;SHT31;53678;39.642;22.430;2022-10-22T12:53:45;20.58;55.30
65478;SHT31;53678;39.642;22.430;2022-10-22T12:56:14;20.74;54.47
65478;SHT31;53678;39.642;22.430;2022-10-22T12:58:44;20.78;54.61
65478;SHT31;53678;39.642;22.430;2022-10-22T13:01:12;20.55;54.77
65478;SHT31;53678;39.642;22.430;2022-10-22T13:03:43;20.60;55.07
65478;SHT31;53678;39.642;22.430;2022-10-22T13:12:04;20.85;53.78
65478;SHT31;53678;39.642;22.430;2022-10-22T13:14:33;20.80;54.36
65478;SHT31;53678;39.642;22.430;2022-10-22T13:20:21;20.74;54.93
65478;SHT31;53678;39.642;22.430;2022-10-22T13:22:56;20.61;54.40
65478;SHT31;53678;39.642;22.430;2022-10-22T13:25:37;20.58;54.44
65478;SHT31;53678;39.642;22.430;2022-10-22T13:28:19;20.47;54.93
65478;SHT31;53678;39.642;22.430;2022-10-22T13:30:58;20.64;55.09
65478;SHT31;53678;39.642;22.430;2022-10-22T13:33:39;20.78;54.82
65478;SHT31;53678;39.642;22.430;2022-10-22T13:36:06;20.92;54.32
65478;SHT31;53678;39.642;22.430;2022-10-22T13:38:33;20.83;54.29
65478;SHT31;53678;39.642;22.430;2022-10-22T13:40:59;20.68;55.07
65478;SHT31;53678;39.642;22.430;2022-10-22T13:43:26;20.60;55.06
65478;SHT31;53678;39.642;22.430;2022-10-22T13:45:53;20.58;55.19
65478;SHT31;53678;39.642;22.430;2022-10-22T13:48:22;20.64;55.08
65478;SHT31;53678;39.642;22.430;2022-10-22T13:50:51;20.58;55.19
65478;SHT31;53678;39.642;22.430;2022-10-22T13:53:22;20.64;55.12
65478;SHT31;53678;39.642;22.430;2022-10-22T13:55:48;20.64;55.19
65478;SHT31;53678;39.642;22.430;2022-10-22T13:58:19;20.60;54.92
65478;SHT31;53678;39.642;22.430;2022-10-22T14:00:48;20.63;54.74
65478;SHT31;53678;39.642;22.430;2022-10-22T14:03:18;20.60;55.14
65478;SHT31;53678;39.642;22.430;2022-10-22T14:05:46;20.58;55.08
65478;SHT31;53678;39.642;22.430;2022-10-22T14:08:14;20.57;55.63
65478;SHT31;53678;39.642;22.430;2022-10-22T14:10:41;20.60;55.42
65478;SHT31;53678;39.642;22.430;2022-10-22T14:13:14;20.61;54.98
65478;SHT31;53678;39.642;22.430;2022-10-22T14:15:41;20.54;55.37
65478;SHT31;53678;39.642;22.430;2022-10-22T14:18:11;20.50;55.57
65478;SHT31;53678;39.642;22.430;2022-10-22T14:20:40;20.43;56.01
65478;SHT31;53678;39.642;22.430;2022-10-22T14:23:18;20.43;55.95
65478;SHT31;53678;39.642;22.430;2022-10-22T14:25:45;20.47;56.10
65478;SHT31;53678;39.642;22.430;2022-10-22T14:28:12;20.40;56.00
65478;SHT31;53678;39.642;22.430;2022-10-22T14:30:39;20.43;55.56
65478;SHT31;53678;39.642;22.430;2022-10-22T14:33:15;20.53;54.74
65478;SHT31;53678;39.642;22.430;2022-10-22T14:35:42;20.55;55.28
65478;SHT31;53678;39.642;22.430;2022-10-22T14:38:08;20.48;55.39
65478;SHT31;53678;39.642;22.430;2022-10-22T14:40:35;20.43;55.69
65478;SHT31;53678;39.642;22.430;2022-10-22T14:43:03;20.41;55.88
65478;SHT31;53678;39.642;22.430;2022-10-22T14:45:29;20.41;55.21
65478;SHT31;53678;39.642;22.430;2022-10-22T14:47:55;20.39;55.74
65478;SHT31;53678;39.642;22.430;2022-10-22T14:50:23;20.36;56.46
65478;SHT31;53678;39.642;22.430;2022-10-22T14:52:50;20.33;56.93
65478;SHT31;53678;39.642;22.430;2022-10-22T14:55:17;20.32;56.58
65478;SHT31;53678;39.642;22.430;2022-10-22T14:57:43;20.27;56.52
65478;SHT31;53678;39.642;22.430;2022-10-22T15:00:12;20.20;56.85
65478;SHT31;53678;39.642;22.430;2022-10-22T15:02:38;20.19;57.03
65478;SHT31;53678;39.642;22.430;2022-10-22T15:05:05;20.09;57.23
65478;SHT31;53678;39.642;22.430;2022-10-22T15:07:31;20.04;57.51
65478;SHT31;53678;39.642;22.430;2022-10-22T15:09:57;20.05;57.46
65478;SHT31;53678;39.642;22.430;2022-10-22T15:12:23;19.93;58.03
65478;SHT31;53678;39.642;22.430;2022-10-22T15:14:49;19.85;57.79
65478;SHT31;53678;39.642;22.430;2022-10-22T15:17:16;19.83;58.22
65478;SHT31;53678;39.642;22.430;2022-10-22T15:19:43;19.74;58.63
65478;SHT31;53678;39.642;22.430;2022-10-22T15:22:10;19.71;58.83
65478;SHT31;53678;39.642;22.430;2022-10-22T15:24:37;19.61;58.80
65478;SHT31;53678;39.642;22.430;2022-10-22T15:27:03;19.54;58.69
65478;SHT31;53678;39.642;22.430;2022-10-22T15:29:30;19.50;58.55
65478;SHT31;53678;39.642;22.430;2022-10-22T15:31:57;19.44;58.68
65478;SHT31;53678;39.642;22.430;2022-10-22T15:34:28;19.44;59.37
65478;SHT31;53678;39.642;22.430;2022-10-22T15:36:59;19.44;59.84
65478;SHT31;53678;39.642;22.430;2022-10-22T15:39:25;19.37;61.08
65478;SHT31;53678;39.642;22.430;2022-10-22T15:41:52;19.26;61.52
65478;SHT31;53678;39.642;22.430;2022-10-22T15:44:23;19.17;61.43
65478;SHT31;53678;39.642;22.430;2022-10-22T15:46:49;19.00;62.71
65478;SHT31;53678;39.642;22.430;2022-10-22T15:49:16;18.90;62.92
65478;SHT31;53678;39.642;22.430;2022-10-22T15:51:43;18.80;63.01
65478;SHT31;53678;39.642;22.430;2022-10-22T15:54:13;18.77;63.03
65478;SHT31;53678;39.642;22.430;2022-10-22T15:56:39;18.75;62.16
65478;SHT31;53678;39.642;22.430;2022-10-22T15:59:05;18.77;61.76
65478;SHT31;53678;39.642;22.430;2022-10-22T16:01:32;18.73;61.96
65478;SHT31;53678;39.642;22.430;2022-10-22T16:03:58;18.82;63.32
65478;SHT31;53678;39.642;22.430;2022-10-22T16:06:29;18.69;63.44
65478;SHT31;53678;39.642;22.430;2022-10-22T16:08:57;18.60;62.84
65478;SHT31;53678;39.642;22.430;2022-10-22T16:11:25;18.59;63.78
65478;SHT31;53678;39.642;22.430;2022-10-22T16:13:52;18.55;63.88
65478;SHT31;53678;39.642;22.430;2022-10-22T16:16:20;18.51;62.88
65478;SHT31;53678;39.642;22.430;2022-10-22T16:18:46;18.42;63.11
65478;SHT31;53678;39.642;22.430;2022-10-22T16:21:12;18.35;63.12
65478;SHT31;53678;39.642;22.430;2022-10-22T16:23:42;18.30;63.13
65478;SHT31;53678;39.642;22.430;2022-10-22T16:26:08;18.25;63.00
65478;SHT31;53678;39.642;22.430;2022-10-22T16:28:34;18.25;63.02
65478;SHT31;53678;39.642;22.430;2022-10-22T16:31:05;18.28;62.79
65478;SHT31;53678;39.642;22.430;2022-10-22T16:33:32;18.49;61.82
65478;SHT31;53678;39.642;22.430;2022-10-22T16:35:58;18.31;62.77
65478;SHT31;53678;39.642;22.430;2022-10-22T16:38:24;18.20;63.06
65478;SHT31;53678;39.642;22.430;2022-10-22T16:40:50;18.10;63.46
65478;SHT31;53678;39.642;22.430;2022-10-22T16:43:16;18.00;63.70
65478;SHT31;53678;39.642;22.430;2022-10-22T16:45:51;17.91;64.19
65478;SHT31;53678;39.642;22.430;2022-10-22T16:48:17;17.89;64.40
65478;SHT31;53678;39.642;22.430;2022-10-22T16:50:43;17.83;64.71
65478;SHT31;53678;39.642;22.430;2022-10-22T16:53:10;17.77;64.79
65478;SHT31;53678;39.642;22.430;2022-10-22T16:55:37;17.73;65.28
65478;SHT31;53678;39.642;22.430;2022-10-22T16:58:04;17.69;65.92
65478;SHT31;53678;39.642;22.430;2022-10-22T17:00:31;17.65;66.28
65478;SHT31;53678;39.642;22.430;2022-10-22T17:02:57;17.87;66.56
65478;SHT31;53678;39.642;22.430;2022-10-22T17:05:23;18.14;66.07
65478;SHT31;53678;39.642;22.430;2022-10-22T17:07:49;17.79;68.26
65478;SHT31;53678;39.642;22.430;2022-10-22T17:10:16;17.70;69.28
65478;SHT31;53678;39.642;22.430;2022-10-22T17:12:45;17.50;70.61
65478;SHT31;53678;39.642;22.430;2022-10-22T17:15:11;17.32;71.86
65478;SHT31;53678;39.642;22.430;2022-10-22T17:17:37;17.15;72.79
65478;SHT31;53678;39.642;22.430;2022-10-22T17:20:04;17.04;73.42
65478;SHT31;53678;39.642;22.430;2022-10-22T17:22:30;17.02;74.04
65478;SHT31;53678;39.642;22.430;2022-10-22T17:25:12;16.88;74.55
65478;SHT31;53678;39.642;22.430;2022-10-22T17:27:38;16.95;74.60
65478;SHT31;53678;39.642;22.430;2022-10-22T17:30:05;16.83;75.21
65478;SHT31;53678;39.642;22.430;2022-10-22T17:32:35;16.84;75.57
65478;SHT31;53678;39.642;22.430;2022-10-22T17:35:01;16.70;75.92
65478;SHT31;53678;39.642;22.430;2022-10-22T17:37:27;16.67;76.11
65478;SHT31;53678;39.642;22.430;2022-10-22T17:39:53;16.71;76.37
65478;SHT31;53678;39.642;22.430;2022-10-22T17:42:19;16.66;76.33
65478;SHT31;53678;39.642;22.430;2022-10-22T17:44:45;16.70;76.31
65478;SHT31;53678;39.642;22.430;2022-10-22T17:47:10;16.68;76.40
65478;SHT31;53678;39.642;22.430;2022-10-22T17:49:37;16.63;76.74
65478;SHT31;53678;39.642;22.430;2022-10-22T17:52:03;16.63;76.58
65478;SHT31;53678;39.642;22.430;2022-10-22T17:54:28;16.61;77.06
65478;SHT31;53678;39.642;22.430;2022-10-22T17:56:54;16.59;77.39
65478;SHT31;53678;39.642;22.430;2022-10-22T17:59:20;16.46;77.82
65478;SHT31;53678;39.642;22.430;2022-10-22T18:01:46;16.53;77.85
65478;SHT31;53678;39.642;22.430;2022-10-22T18:04:16;16.56;77.97
65478;SHT31;53678;39.642;22.430;2022-10-22T18:06:42;16.47;78.03
65478;SHT31;53678;39.642;22.430;2022-10-22T18:09:08;16.49;78.38
65478;SHT31;53678;39.642;22.430;2022-10-22T18:11:35;16.54;78.34